Itumirim, Brazil
Current Conditions -  °F | °C
As of 4:00 PM on Sunday 21 Dec 2014 (Local Time) from SBBQ Reporting Station
Light Rain Light Rain  
Wind Chill: 72°   Ceiling: Unl
Heat Index: 72°   Visibility: 2.5mi
Dew Point: 68°   Wind: 5mph
Humidity: 88%   Direction: 350°N
Pressure: 30.06"   Gusts: NA
Location:  21.32°S, 44.87°W
Report Text: SBBQ 211800Z 35004KT 4000 -RA BR FEW025 SCT035 FEW040TCU 22/20 Q1018
Loading
Personal Weather Stations






























Interactive Weather Map New forecast layout! Learn more

10-Day Weather Forecast

Advertisements
Track Severe Weather on mobile